• Join FlightAware (Why Join?)
  • Login
  • US Flag 
06:43AM EDT


 

Airport Tracker/Info


-or-


 

Live Flight TrackerFlight Track Log ✈ BJS542 ✈ 12-Aug-2013 ✈ CYQI - KBGR

Flight Track Log - Related Links

Times and Time Zones

All times are in EDT time to prevent confusion due to time zone crossing. See the BJS542 flight status page for this flight to view local times or setup timezone preferences in your user account.

Time Position Orientation Groundspeed Altitude Reporting Facility
EDT Latitude Longitude Course Direction KTS MPH feet Rate Location/Type
01:01PM 43.7833 -66.1333 305° West 110 127 2,600  Level Moncton Center
01:02PM 43.8167 -66.2000 305° West 250 288 5,500 3,000 Climbing Moncton Center
01:03PM 43.8500 -66.3000 295° West 260 299 8,600 3,000 Climbing Moncton Center
01:04PM 43.8833 -66.3833 299° West 270 311 11,500 3,000 Climbing Moncton Center
01:05PM 43.9333 -66.5167 298° West 290 334 14,700 2,220 Climbing Moncton Center
01:06PM 43.9667 -66.6000 299° West 320 368 16,000 660 Climbing Moncton Center
01:07PM 44.0167 -66.7167 301° West 330 380 16,100  Climbing Moncton Center
01:08PM 44.0667 -66.8333 301° West 340 391 16,100  Level Moncton Center
01:09PM 44.1000 -66.9500 292° West 330 380 16,100  Level Moncton Center
01:10PM 44.1333 -67.0833 289° West 340 391 16,100  Level Moncton Center
01:11PM 44.1833 -67.1667 310° West 330 380 16,100  Level Moncton Center
01:12PM 44.2333 -67.2833 301° West 340 391 16,100  Level Moncton Center
01:13PM 44.2833 -67.4167 298° West 340 391 16,100 -120 Level Moncton Center
01:14PM 44.3153 -67.4892 302° West 338 389 15,900 -960 Descending Boston Center
01:15PM 44.3669 -67.6242 298° West 338 389 14,300 -1,620 Descending Boston Center
01:16PM 44.4069 -67.7372 296° West 338 389 12,800 -1,560 Descending Boston Center
01:17PM 44.4442 -67.8333 299° West 314 361 11,200 -1,560 Descending Boston Center
01:18PM 44.4794 -67.9294 297° West 297 342 9,700 -1,500 Descending Boston Center
01:19PM 44.5144 -68.0258 297° West 285 328 8,200 -1,500 Descending Boston Center
01:20PM 44.5408 -68.1200 291° West 272 313 6,700 -1,620 Descending Boston Center
01:21PM 44.5636 -68.2319 286° West 267 307 5,100 -1,080 Descending Boston Center
01:22PM 44.5817 -68.3269 285° West 261 300 4,700 -600 Descending Boston Center
01:23PM 44.6000 -68.4278 284° West 261 300 4,000 -540 Descending Boston Center
01:24PM 44.6322 -68.5161 297° West 261 300 3,700 -540 Descending Boston Center
01:25PM 44.6683 -68.6042 300° West 261 300 3,000 -600 Descending Boston Center
01:26PM 44.7064 -68.6836 304° West 254 292 2,500 -780 Descending Boston Center
01:27PM 44.7500 -68.7450 315° West 243 280 1,500 -960 Descending Boston Center
01:28PM 44.7853 -68.7986 313° West 214 246 500 1,860 Descending Boston Center
01:29PM 44.8356 -68.8772 312° West 205 236 6,000 2,460 Climbing Boston Center
01:30PM 44.8747 -68.9336 314° West 205 236 6,000  Level Boston Center